Time;durP1;ratioP1;P1;durP2;ratioP2;P2;SDS_P1;SDS_P2;PMS_P1;PMS_P2;Temp;Humidity;BMP_temperature;BMP_pressure;BME280_temperature;BME280_humidity;BME280_pressure;Samples;Min_cycle;Max_cycle;Signal;HPM_P1;HPM_P2
2022/08/27 00:02:34;;;;;;;;;25.00;23.00;;;;;27.03;38.54;98303.13;6263675;27;97389;-56
2022/08/27 00:05:37;;;;;;;;;25.25;24.00;;;;;27.03;38.66;98303.94;6262926;27;97623;-58
2022/08/27 00:08:41;;;;;;;;;28.40;27.80;;;;;27.01;38.91;98299.94;6263727;27;97082;-56
2022/08/27 00:11:46;;;;;;;;;31.00;30.00;;;;;26.98;39.13;98297.84;6261338;27;97067;-58
2022/08/27 00:14:50;;;;;;;;;22.80;22.00;;;;;26.94;38.90;98292.19;6247739;27;97408;-58
2022/08/27 00:17:54;;;;;;;;;28.00;27.00;;;;;26.90;39.48;98284.91;6262487;27;96936;-60
2022/08/27 00:20:57;;;;;;;;;26.00;25.33;;;;;26.87;39.29;98285.63;6262052;27;97231;-60
2022/08/27 00:24:01;;;;;;;;;29.50;29.00;;;;;26.83;39.21;98285.44;6259479;27;96539;-57
2022/08/27 00:27:06;;;;;;;;;35.00;31.20;;;;;26.81;39.40;98298.81;6255321;27;97047;-57
2022/08/27 00:30:14;;;;;;;;;30.20;28.40;;;;;26.78;39.63;98293.19;6236095;27;96677;-58
2022/08/27 00:33:18;;;;;;;;;29.40;29.00;;;;;26.74;39.73;98293.84;6236549;27;97062;-56
2022/08/27 00:36:22;;;;;;;;;29.40;27.00;;;;;26.60;39.61;98285.03;6236275;28;96822;-58
2022/08/27 00:39:26;;;;;;;;;27.60;26.60;;;;;26.66;39.63;98297.53;6237773;27;96478;-57
2022/08/27 00:42:31;;;;;;;;;42.00;36.00;;;;;26.61;39.98;98294.97;6245854;27;97489;-58
2022/08/27 00:45:39;;;;;;;;;42.40;36.00;;;;;26.58;40.22;98298.44;6261388;27;97510;-60
2022/08/27 00:48:42;;;;;;;;;37.75;33.00;;;;;26.54;40.54;98297.47;6257209;27;96700;-59
2022/08/27 00:51:51;;;;;;;;;33.00;30.40;;;;;26.49;40.57;98291.34;6261032;27;97301;-57
2022/08/27 00:55:01;;;;;;;;;34.00;32.00;;;;;26.45;40.46;98291.22;6238632;27;97451;-60
2022/08/27 00:58:14;;;;;;;;;37.60;33.60;;;;;26.40;40.87;98291.44;6237413;27;97505;-60
2022/08/27 01:01:20;;;;;;;;;32.60;31.00;;;;;26.36;40.94;98290.50;6237892;28;98004;-57
2022/08/27 01:04:28;;;;;;;;;34.00;31.80;;;;;26.30;40.92;98281.59;6239811;27;97039;-57
2022/08/27 01:07:35;;;;;;;;;38.60;34.60;;;;;26.25;41.27;98279.03;6242624;27;97462;-58
2022/08/27 01:10:39;;;;;;;;;39.00;34.60;;;;;26.20;41.22;98278.41;6245613;27;98737;-57
2022/08/27 01:13:44;;;;;;;;;35.40;32.00;;;;;26.16;41.21;98286.56;6244126;27;96797;-58
2022/08/27 01:17:04;;;;;;;;;39.60;33.60;;;;;26.12;41.00;98285.63;6250612;27;97422;-56
2022/08/27 01:20:13;;;;;;;;;41.60;35.00;;;;;26.11;41.05;98297.84;6237752;27;96377;-56
2022/08/27 01:23:24;;;;;;;;;29.20;29.20;;;;;26.13;40.94;98297.50;6238707;27;97114;-55
2022/08/27 01:26:30;;;;;;;;;37.40;33.00;;;;;26.01;40.82;98281.66;6237527;27;97523;-56
2022/08/27 01:29:34;;;;;;;;;34.00;32.00;;;;;26.11;40.94;98300.59;6237497;27;96978;-60
2022/08/27 01:32:38;;;;;;;;;36.20;32.80;;;;;26.08;41.46;98298.53;6247289;27;97031;-57
2022/08/27 01:35:43;;;;;;;;;34.40;32.00;;;;;26.03;41.48;98295.16;6249187;27;97573;-58
2022/08/27 01:38:47;;;;;;;;;36.60;32.00;;;;;25.99;41.54;98291.44;6237283;27;97177;-60
2022/08/27 01:41:52;;;;;;;;;31.00;30.00;;;;;25.94;42.08;98291.66;6256705;27;97409;-60
2022/08/27 01:44:59;;;;;;;;;33.50;30.00;;;;;25.90;42.33;98286.00;6262518;27;97559;-59
2022/08/27 01:48:06;;;;;;;;;31.60;30.00;;;;;25.86;42.23;98279.50;6262276;27;96620;-59
2022/08/27 01:51:09;;;;;;;;;38.50;34.00;;;;;25.80;42.37;98278.09;6261771;27;96496;-59
2022/08/27 01:54:13;;;;;;;;;40.00;34.00;;;;;25.74;42.54;98276.69;6241126;27;98098;-59
2022/08/27 01:57:18;;;;;;;;;35.20;32.00;;;;;25.52;42.48;98257.63;6238012;27;97137;-59
2022/08/27 02:00:31;;;;;;;;;34.60;31.60;;;;;25.65;42.63;98284.22;6254327;27;97272;-59
2022/08/27 02:03:35;;;;;;;;;44.40;38.00;;;;;25.59;42.86;98286.38;6254688;27;97122;-59
2022/08/27 02:06:39;;;;;;;;;40.80;35.00;;;;;25.54;42.95;98289.28;6261726;27;97209;-59
2022/08/27 02:09:42;;;;;;;;;48.60;40.00;;;;;25.49;42.91;98289.47;6259571;27;97963;-57
2022/08/27 02:12:48;;;;;;;;;43.00;37.00;;;;;25.46;43.00;98292.91;6246521;27;97539;-57
2022/08/27 02:15:52;;;;;;;;;41.00;35.00;;;;;25.24;43.02;98257.31;6259758;27;97396;-56
2022/08/27 02:18:55;;;;;;;;;41.75;36.75;;;;;25.41;43.13;98293.88;6257858;27;97132;-56
2022/08/27 02:21:59;;;;;;;;;47.00;40.00;;;;;25.29;43.39;98274.50;6257945;27;97441;-57
2022/08/27 02:25:02;;;;;;;;;42.75;36.00;;;;;25.37;43.34;98290.19;6234846;27;97527;-57
2022/08/27 02:28:07;;;;;;;;;45.00;37.00;;;;;25.36;43.20;98283.03;6238644;27;97794;-59
2022/08/27 02:31:11;;;;;;;;;45.00;38.00;;;;;25.31;43.42;98282.44;6240834;27;97086;-58
2022/08/27 02:34:15;;;;;;;;;47.40;38.80;;;;;25.32;43.35;98281.28;6234032;27;97379;-57
2022/08/27 02:37:18;;;;;;;;;45.40;39.00;;;;;25.32;43.62;98281.28;6258668;27;97141;-56
2022/08/27 02:40:23;;;;;;;;;47.40;39.40;;;;;25.31;43.63;98282.44;6248955;27;96972;-57
2022/08/27 02:43:28;;;;;;;;;47.60;40.00;;;;;25.29;43.95;98282.75;6257455;27;96977;-56
2022/08/27 02:46:31;;;;;;;;;51.20;43.40;;;;;25.29;44.02;98284.72;6264663;27;97464;-57
2022/08/27 02:49:35;;;;;;;;;47.00;40.00;;;;;25.26;43.98;98285.38;6259923;27;97445;-59
2022/08/27 02:52:39;;;;;;;;;49.80;42.00;;;;;25.13;43.72;98267.91;6238987;28;97253;-58
2022/08/27 02:55:42;;;;;;;;;48.40;41.00;;;;;25.19;43.77;98276.81;6238822;27;97471;-57
2022/08/27 02:58:48;;;;;;;;;48.20;40.40;;;;;25.16;44.03;98271.97;6241335;27;96939;-57
2022/08/27 03:01:51;;;;;;;;;46.20;39.00;;;;;25.14;44.08;98275.03;6259305;27;96674;-59
2022/08/27 03:04:55;;;;;;;;;45.20;38.00;;;;;25.13;44.04;98267.91;6243619;27;97008;-57
2022/08/27 03:07:59;;;;;;;;;46.40;39.00;;;;;25.10;44.06;98265.81;6239674;27;96616;-59
2022/08/27 03:11:02;;;;;;;;;46.50;39.00;;;;;25.10;44.02;98274.09;6240759;27;97497;-54
2022/08/27 03:14:08;;;;;;;;;50.00;42.00;;;;;25.09;44.06;98268.91;6239350;27;97138;-57
2022/08/27 03:20:33;;;;;;;;;52.00;43.80;;;;;25.11;43.75;98269.41;6239641;27;97421;-58
2022/08/27 03:23:36;;;;;;;;;50.40;42.20;;;;;25.09;43.56;98266.16;6239260;27;96486;-62
2022/08/27 03:26:40;;;;;;;;;47.20;40.00;;;;;25.09;43.54;98275.22;6248247;27;97251;-56
2022/08/27 03:29:56;;;;;;;;;50.60;42.60;;;;;25.09;43.71;98274.41;6239234;27;97492;-61
2022/08/27 03:33:06;;;;;;;;;55.00;45.00;;;;;25.01;43.95;98274.16;6239730;27;97633;-57
2022/08/27 03:36:10;;;;;;;;;52.60;43.00;;;;;24.97;44.00;98272.38;6239750;27;97939;-58
2022/08/27 03:39:13;;;;;;;;;52.00;43.00;;;;;24.99;43.85;98273.66;6253685;27;97897;-56
2022/08/27 03:42:17;;;;;;;;;52.80;44.80;;;;;25.03;44.07;98277.34;6243941;27;97469;-61
2022/08/27 03:45:22;;;;;;;;;48.40;41.00;;;;;25.05;43.84;98267.94;6245704;27;98122;-60
2022/08/27 03:48:27;;;;;;;;;48.00;40.00;;;;;25.03;43.75;98271.84;6238739;27;97042;-55
2022/08/27 03:51:30;;;;;;;;;55.60;45.60;;;;;25.01;43.71;98268.63;6256880;27;97071;-59
2022/08/27 03:54:34;;;;;;;;;52.00;44.00;;;;;25.03;43.68;98268.28;6241893;27;97092;-56
2022/08/27 03:57:38;;;;;;;;;49.40;41.40;;;;;25.00;43.70;98263.44;6253607;27;97025;-59
2022/08/27 04:00:43;;;;;;;;;55.25;45.25;;;;;24.97;43.68;98269.63;6277294;27;97511;-59
2022/08/27 04:03:46;;;;;;;;;55.00;46.00;;;;;24.96;43.74;98266.06;6239837;27;96648;-58
2022/08/27 04:06:50;;;;;;;;;49.60;42.00;;;;;24.89;44.11;98260.22;6260630;27;97711;-56
2022/08/27 04:09:53;;;;;;;;;60.75;49.50;;;;;24.94;43.97;98265.56;6260231;27;97514;-59
2022/08/27 04:12:57;;;;;;;;;55.00;45.60;;;;;24.94;43.93;98273.03;6245364;27;96662;-58
2022/08/27 04:16:01;;;;;;;;;52.00;43.80;;;;;24.95;43.96;98275.47;6249458;27;97009;-57
2022/08/27 04:19:05;;;;;;;;;52.40;44.00;;;;;24.96;43.79;98274.31;6248434;27;97558;-56
2022/08/27 04:22:09;;;;;;;;;51.00;43.00;;;;;24.99;44.02;98278.34;6247282;27;97325;-55
2022/08/27 04:25:12;;;;;;;;;54.40;45.20;;;;;25.01;44.13;98278.84;6256151;27;96941;-56
2022/08/27 04:28:17;;;;;;;;;51.40;43.00;;;;;25.06;44.16;98275.09;6255127;27;97095;-57
2022/08/27 04:31:22;;;;;;;;;49.75;42.00;;;;;25.13;43.95;98286.41;6239817;27;96742;-57
2022/08/27 04:34:26;;;;;;;;;52.00;43.00;;;;;25.21;44.31;98274.53;6250600;27;97586;-58
2022/08/27 04:37:31;;;;;;;;;50.00;42.00;;;;;25.27;44.06;98279.50;6247154;27;97406;-58
2022/08/27 04:44:02;;;;;;;;;49.25;42.00;;;;;25.46;43.66;98270.84;6243563;27;97764;-59
2022/08/27 04:47:07;;;;;;;;;51.00;43.00;;;;;25.53;43.33;98262.81;6250748;27;96938;-57
2022/08/27 04:50:11;;;;;;;;;48.75;41.00;;;;;25.60;43.29;98260.38;6252476;27;97422;-57
2022/08/27 04:53:17;;;;;;;;;55.60;45.60;;;;;25.66;43.26;98263.72;6270073;27;98284;-58
2022/08/27 04:56:22;;;;;;;;;49.00;41.75;;;;;25.74;43.27;98271.16;6250620;27;97540;-59
2022/08/27 04:59:26;;;;;;;;;47.00;39.00;;;;;25.83;43.24;98271.91;6253257;27;98051;-56
2022/08/27 05:02:33;;;;;;;;;41.40;36.00;;;;;25.90;42.67;98277.72;6261612;27;97462;-59
2022/08/27 05:05:37;;;;;;;;;44.60;38.00;;;;;25.98;42.38;98273.25;6263651;27;96857;-58
2022/08/27 05:08:45;;;;;;;;;55.60;46.00;;;;;26.02;42.47;98271.44;6238079;27;97383;-55
2022/08/27 05:11:50;;;;;;;;;47.67;40.67;;;;;26.09;42.34;98272.50;6241573;27;98695;-58
2022/08/27 05:14:54;;;;;;;;;49.00;42.00;;;;;26.19;42.33;98274.06;6248259;27;97402;-58
2022/08/27 05:17:59;;;;;;;;;53.20;44.00;;;;;26.28;42.06;98272.06;6227320;27;99590;-57
2022/08/27 05:21:04;;;;;;;;;49.00;41.00;;;;;26.34;41.80;98278.19;6247211;27;97455;-62
2022/08/27 05:24:08;;;;;;;;;46.00;39.00;;;;;26.43;41.74;98271.41;6241891;27;97491;-60
2022/08/27 05:27:12;;;;;;;;;38.80;34.80;;;;;26.49;41.39;98272.78;6251420;27;97207;-55
2022/08/27 05:30:15;;;;;;;;;43.00;36.00;;;;;26.60;42.01;98282.28;6246011;27;98020;-59
2022/08/27 05:33:23;;;;;;;;;43.00;37.00;;;;;26.73;41.76;98280.38;6259083;27;97104;-55
2022/08/27 05:36:29;;;;;;;;;47.40;40.00;;;;;26.88;41.80;98276.94;6235265;27;97052;-55
2022/08/27 05:39:33;;;;;;;;;29.80;29.20;;;;;27.03;41.55;98272.72;6244971;27;97416;-59
2022/08/27 05:42:36;;;;;;;;;39.00;33.00;;;;;27.19;40.95;98270.88;6246905;27;97401;-57
2022/08/27 05:45:41;;;;;;;;;28.25;26.50;;;;;27.34;40.54;98275.72;6246261;27;97425;-58
2022/08/27 05:48:46;;;;;;;;;34.40;31.60;;;;;27.46;39.86;98272.16;6239829;27;97677;-58
2022/08/27 05:51:50;;;;;;;;;25.50;23.50;;;;;27.55;39.36;98273.69;6236229;27;98832;-57
2022/08/27 05:54:53;;;;;;;;;26.25;25.50;;;;;27.66;39.62;98270.44;6246132;27;96930;-58
2022/08/27 05:57:57;;;;;;;;;40.00;35.00;;;;;27.71;39.74;98262.66;6236888;27;97652;-59
2022/08/27 06:01:05;;;;;;;;;25.00;25.00;;;;;27.80;39.97;98268.09;6236119;27;96835;-57
2022/08/27 06:04:14;;;;;;;;;21.00;20.50;;;;;27.89;39.61;98268.78;6237996;27;97081;-59
2022/08/27 06:07:20;;;;;;;;;25.40;23.00;;;;;27.96;38.71;98266.19;6239486;27;97507;-58
2022/08/27 06:10:23;;;;;;;;;23.60;22.00;;;;;27.98;39.45;98263.91;6241327;27;97643;-56
2022/08/27 06:13:27;;;;;;;;;21.00;19.50;;;;;28.11;39.61;98273.81;6239370;27;97736;-55
2022/08/27 06:16:31;;;;;;;;;25.00;24.00;;;;;28.21;38.45;98286.34;6243724;27;97059;-55
2022/08/27 06:19:36;;;;;;;;;21.20;19.00;;;;;28.33;39.12;98291.88;6235878;27;96833;-59
2022/08/27 06:22:39;;;;;;;;;22.00;22.00;;;;;28.46;38.41;98301.75;6240328;27;97044;-57
2022/08/27 06:25:43;;;;;;;;;23.60;23.00;;;;;28.60;38.06;98304.09;6246940;27;97133;-55
2022/08/27 06:28:47;;;;;;;;;21.50;19.75;;;;;28.74;38.09;98304.50;6245737;27;97594;-57
2022/08/27 06:31:51;;;;;;;;;22.67;19.67;;;;;28.91;38.75;98311.72;6242191;27;96924;-54
2022/08/27 06:34:57;;;;;;;;;22.75;21.25;;;;;28.92;36.79;98291.94;6240337;27;96888;-60
2022/08/27 06:38:00;;;;;;;;;22.00;20.00;;;;;29.15;37.71;98304.03;6241915;27;97062;-57
2022/08/27 06:41:05;;;;;;;;;19.00;18.60;;;;;29.30;37.45;98307.97;6248693;27;97390;-55
2022/08/27 06:44:19;;;;;;;;;25.00;23.80;;;;;29.50;37.71;98308.88;6247703;27;97454;-57
2022/08/27 06:47:23;;;;;;;;;19.20;18.40;;;;;29.63;37.41;98310.38;6241145;27;98183;-56
2022/08/27 06:50:28;;;;;;;;;24.60;23.60;;;;;29.79;37.47;98308.38;6243427;27;97140;-58
2022/08/27 06:53:31;;;;;;;;;21.60;21.40;;;;;29.96;37.51;98309.97;6247459;27;97028;-56
2022/08/27 06:56:35;;;;;;;;;19.00;18.00;;;;;30.15;37.17;98323.13;6249494;27;97734;-59
2022/08/27 06:59:39;;;;;;;;;24.00;20.75;;;;;30.30;35.73;98308.34;6249656;27;97813;-57
2022/08/27 07:02:43;;;;;;;;;23.60;22.60;;;;;30.45;35.58;98311.03;6238904;27;97502;-58
2022/08/27 07:05:48;;;;;;;;;23.00;23.00;;;;;30.67;35.36;98306.75;6247014;27;97574;-58
2022/08/27 07:08:51;;;;;;;;;20.80;20.00;;;;;30.86;36.53;98317.03;6242437;27;97271;-57
2022/08/27 07:11:56;;;;;;;;;22.00;20.00;;;;;31.05;35.46;98317.03;6236209;27;97428;-55
2022/08/27 07:14:59;;;;;;;;;25.80;25.60;;;;;31.23;34.33;98309.78;6240160;27;97592;-55
2022/08/27 07:18:03;;;;;;;;;24.00;22.00;;;;;31.41;34.33;98310.09;6235863;27;97466;-57
2022/08/27 07:21:11;;;;;;;;;28.40;27.00;;;;;31.40;33.10;98292.56;6237162;27;98332;-61
2022/08/27 07:24:14;;;;;;;;;26.75;25.00;;;;;31.66;33.50;98304.94;6241139;27;96945;-56
2022/08/27 07:27:19;;;;;;;;;28.00;25.80;;;;;31.76;33.89;98310.69;6241675;27;98057;-54
2022/08/27 07:30:22;;;;;;;;;25.00;23.00;;;;;31.86;32.96;98305.63;6251946;27;97749;-56
2022/08/27 07:33:26;;;;;;;;;22.75;22.00;;;;;31.97;33.14;98315.75;6246667;27;97864;-57
2022/08/27 07:36:32;;;;;;;;;24.00;24.00;;;;;32.09;32.54;98317.50;6243665;27;97320;-57
2022/08/27 07:39:36;;;;;;;;;23.00;20.00;;;;;32.20;33.41;98322.09;6254448;27;98547;-55
2022/08/27 07:46:02;;;;;;;;;21.00;20.50;;;;;32.46;31.86;98335.16;6248529;27;96942;-55
2022/08/27 07:49:06;;;;;;;;;26.00;23.50;;;;;32.46;31.56;98334.34;6238905;27;97391;-58
2022/08/27 07:52:11;;;;;;;;;23.00;22.00;;;;;32.58;31.65;98342.50;6239485;27;96685;-55
2022/08/27 07:55:15;;;;;;;;;23.40;22.40;;;;;32.68;32.29;98339.06;6250036;27;98130;-56
2022/08/27 07:58:19;;;;;;;;;22.80;21.00;;;;;32.84;32.70;98344.41;6240436;27;98093;-58
2022/08/27 08:01:23;;;;;;;;;18.80;18.20;;;;;33.04;32.09;98343.03;6253973;27;98478;-58
2022/08/27 08:04:27;;;;;;;;;23.40;21.40;;;;;33.25;32.22;98340.47;6242919;27;97636;-58
2022/08/27 08:07:32;;;;;;;;;22.00;21.00;;;;;33.47;31.39;98347.88;6244997;27;98472;-56
2022/08/27 08:10:36;;;;;;;;;22.50;21.00;;;;;33.67;32.19;98345.69;6243300;27;96487;-55
2022/08/27 08:13:39;;;;;;;;;20.25;19.75;;;;;33.87;31.21;98351.78;6243648;27;97635;-57
2022/08/27 08:16:43;;;;;;;;;22.20;21.20;;;;;34.07;31.15;98355.09;6243122;27;97405;-56
2022/08/27 08:19:48;;;;;;;;;24.80;23.00;;;;;34.20;30.13;98346.06;6241099;27;97468;-56
2022/08/27 08:23:13;;;;;;;;;20.75;19.00;;;;;34.36;30.25;98356.91;6237693;27;98607;-55
2022/08/27 08:26:16;;;;;;;;;22.00;21.40;;;;;34.51;30.12;98358.56;6242919;27;96960;-56
2022/08/27 08:29:20;;;;;;;;;21.00;20.00;;;;;34.66;29.13;98370.63;6239314;27;96634;-58
2022/08/27 08:32:24;;;;;;;;;22.60;20.60;;;;;34.77;29.02;98361.13;6241560;27;98090;-61
2022/08/27 08:35:27;;;;;;;;;21.00;20.00;;;;;34.87;29.00;98369.97;6251344;27;96780;-55
2022/08/27 08:38:46;;;;;;;;;21.20;19.00;;;;;34.99;29.01;98375.97;6239309;27;97079;-61
2022/08/27 08:41:52;;;;;;;;;20.00;19.00;;;;;35.12;29.33;98365.22;6248999;27;98105;-56
2022/08/27 08:44:59;;;;;;;;;19.80;18.80;;;;;35.25;29.30;98376.88;6242785;27;97439;-63
2022/08/27 08:48:08;;;;;;;;;22.67;19.00;;;;;35.35;29.06;98362.88;6238352;27;96699;-61
2022/08/27 08:51:19;;;;;;;;;19.80;18.80;;;;;35.42;28.75;98376.13;6236984;28;98216;-59
2022/08/27 08:54:30;;;;;;;;;19.40;18.00;;;;;35.50;27.95;98377.72;6248096;27;97423;-57
2022/08/27 08:57:40;;;;;;;;;19.00;18.00;;;;;35.52;28.21;98378.94;6249161;27;97546;-62
2022/08/27 09:00:48;;;;;;;;;19.00;17.00;;;;;35.55;27.01;98380.13;6237525;27;98281;-56
2022/08/27 09:03:54;;;;;;;;;18.75;18.75;;;;;35.55;27.21;98383.72;6249649;27;96524;-55
2022/08/27 09:07:02;;;;;;;;;18.00;17.00;;;;;35.54;26.61;98379.31;6242610;27;97201;-58
2022/08/27 09:10:18;;;;;;;;;19.40;18.40;;;;;35.60;26.28;98377.72;6242548;27;97634;-59
2022/08/27 09:13:25;;;;;;;;;18.00;17.00;;;;;35.52;26.76;98350.91;6245175;27;97104;-60
2022/08/27 09:16:31;;;;;;;;;15.75;15.25;;;;;35.82;25.94;98372.16;6234689;27;97510;-55
2022/08/27 09:19:34;;;;;;;;;13.80;12.80;;;;;35.96;25.88;98374.94;6242364;27;97369;-61
2022/08/27 09:22:48;;;;;;;;;15.00;13.50;;;;;36.10;26.47;98380.53;6235398;27;96772;-56
2022/08/27 09:25:53;;;;;;;;;13.60;12.60;;;;;36.27;25.49;98373.28;6253284;27;97422;-59
2022/08/27 09:29:18;;;;;;;;;13.00;13.00;;;;;36.42;25.53;98375.66;6237589;27;96608;-56
2022/08/27 09:32:25;;;;;;;;;16.00;15.00;;;;;36.63;25.96;98374.00;6244996;27;98582;-56
2022/08/27 09:35:38;;;;;;;;;13.00;13.00;;;;;36.79;24.24;98377.97;6237545;27;99166;-62
2022/08/27 09:38:52;;;;;;;;;12.80;12.00;;;;;36.97;24.14;98368.63;6236899;27;96806;-54
2022/08/27 09:42:03;;;;;;;;;14.25;13.00;;;;;37.07;24.31;98377.03;6218423;28;96852;-57
2022/08/27 09:45:08;;;;;;;;;11.00;11.00;;;;;37.13;23.65;98372.59;6245956;27;97828;-63
2022/08/27 09:48:18;;;;;;;;;13.00;13.00;;;;;37.27;25.08;98382.94;6247118;27;97214;-55
2022/08/27 09:51:24;;;;;;;;;12.20;12.20;;;;;37.41;23.27;98367.97;6236945;27;97581;-59
2022/08/27 09:54:39;;;;;;;;;12.75;12.75;;;;;37.51;23.33;98362.28;6251550;27;96657;-58
2022/08/27 09:57:44;;;;;;;;;13.00;12.00;;;;;37.62;23.21;98365.84;6255587;27;97429;-56
2022/08/27 10:00:48;;;;;;;;;13.00;13.00;;;;;37.74;23.79;98359.69;6262441;27;96561;-59
2022/08/27 10:04:04;;;;;;;;;14.00;14.00;;;;;37.90;23.77;98356.34;6263526;27;97047;-55
2022/08/27 10:07:20;;;;;;;;;12.00;11.80;;;;;38.05;23.16;98357.03;6268583;27;96789;-60
2022/08/27 10:10:33;;;;;;;;;15.00;13.00;;;;;38.21;24.07;98360.09;6264556;27;97093;-56
2022/08/27 10:13:48;;;;;;;;;11.75;11.75;;;;;38.36;23.04;98355.09;6250222;27;97660;-55
2022/08/27 10:17:06;;;;;;;;;12.00;10.00;;;;;38.54;23.27;98364.97;6252703;27;96619;-60
2022/08/27 10:20:18;;;;;;;;;10.80;10.00;;;;;38.74;23.38;98361.50;6244104;27;97345;-56
2022/08/27 10:23:42;;;;;;;;;11.20;10.00;;;;;38.91;23.29;98363.31;6248928;27;97457;-56
2022/08/27 10:26:57;;;;;;;;;10.00;10.00;;;;;39.06;22.20;98361.09;6245943;27;97479;-57
2022/08/27 10:30:07;;;;;;;;;13.67;12.67;;;;;39.06;22.25;98344.16;6254377;27;97130;-57
2022/08/27 10:33:19;;;;;;;;;11.40;10.00;;;;;39.24;22.19;98362.44;6249873;27;96747;-58
2022/08/27 10:36:39;;;;;;;;;11.40;10.40;;;;;39.33;21.73;98356.28;6244777;27;97415;-60
2022/08/27 10:39:55;;;;;;;;;11.00;11.00;;;;;39.33;21.02;98351.47;6244949;27;96736;-57
2022/08/27 10:43:11;;;;;;;;;11.25;10.00;;;;;39.47;21.45;98353.25;6245557;27;96653;-55
2022/08/27 10:46:39;;;;;;;;;10.00;10.00;;;;;39.55;21.76;98349.06;6243651;27;97595;-57
2022/08/27 10:50:01;;;;;;;;;10.00;10.00;;;;;39.62;22.54;98342.53;6241189;27;98370;-58
2022/08/27 10:53:10;;;;;;;;;12.20;12.20;;;;;39.72;22.41;98333.88;6253126;27;97434;-56
2022/08/27 10:56:18;;;;;;;;;10.60;10.60;;;;;39.78;22.22;98340.63;6266209;27;96584;-59
2022/08/27 10:59:33;;;;;;;;;11.50;11.00;;;;;39.85;22.16;98336.91;6251477;27;97156;-58
2022/08/27 11:02:44;;;;;;;;;12.25;12.00;;;;;39.92;22.44;98342.44;6264927;27;97973;-57
2022/08/27 11:05:50;;;;;;;;;14.25;13.25;;;;;40.01;23.06;98341.88;6250408;27;96715;-62
2022/08/27 11:08:59;;;;;;;;;12.50;11.50;;;;;40.07;23.09;98340.94;6242455;27;97498;-61
2022/08/27 11:12:15;;;;;;;;;14.00;13.00;;;;;40.09;22.66;98338.47;6252409;27;98030;-60
2022/08/27 11:15:23;;;;;;;;;14.00;12.00;;;;;39.95;22.95;98332.28;6238854;27;97499;-57
2022/08/27 11:18:42;;;;;;;;;13.00;13.00;;;;;40.06;22.73;98355.47;6245911;27;97873;-61
2022/08/27 11:21:51;;;;;;;;;13.00;13.00;;;;;40.05;22.60;98343.38;6242208;27;99195;-60
2022/08/27 11:25:00;;;;;;;;;12.20;12.00;;;;;40.05;22.43;98340.56;6260717;27;96890;-58
2022/08/27 11:28:06;;;;;;;;;13.60;13.00;;;;;40.05;21.84;98356.72;6246778;27;97202;-57
2022/08/27 11:31:18;;;;;;;;;14.60;13.60;;;;;40.00;21.24;98349.53;6239976;27;97403;-56
2022/08/27 11:34:32;;;;;;;;;14.40;14.40;;;;;39.91;22.37;98349.31;6242979;27;96463;-61
2022/08/27 11:37:53;;;;;;;;;15.67;15.00;;;;;39.82;21.40;98347.03;6238709;27;97199;-59
2022/08/27 11:41:17;;;;;;;;;12.50;12.00;;;;;39.72;22.04;98338.72;6237534;27;97286;-62
2022/08/27 11:44:23;;;;;;;;;14.60;14.20;;;;;39.64;22.72;98334.41;6237377;27;97403;-59
2022/08/27 11:47:28;;;;;;;;;15.00;14.00;;;;;39.54;23.14;98330.53;6243293;27;97310;-61
2022/08/27 11:50:33;;;;;;;;;17.00;15.60;;;;;39.49;23.67;98327.44;6242800;27;97095;-62
2022/08/27 11:53:39;;;;;;;;;13.80;13.00;;;;;39.46;23.44;98317.00;6239464;27;96903;-59
2022/08/27 11:56:54;;;;;;;;;13.50;13.50;;;;;39.41;22.97;98313.44;6260349;27;97482;-61
2022/08/27 11:59:59;;;;;;;;;12.80;12.80;;;;;39.36;24.22;98315.94;6245404;27;97053;-58
2022/08/27 12:03:09;;;;;;;;;16.50;13.75;;;;;39.27;24.29;98324.94;6252271;27;96498;-59
2022/08/27 12:06:26;;;;;;;;;12.40;12.00;;;;;39.26;24.36;98337.41;6251441;27;98101;-61
2022/08/27 12:09:30;;;;;;;;;13.80;13.00;;;;;39.25;24.84;98318.91;6243980;27;96925;-61
2022/08/27 12:12:43;;;;;;;;;16.00;15.00;;;;;39.19;25.01;98300.88;6242398;27;96893;-58
2022/08/27 12:15:56;;;;;;;;;17.00;13.60;;;;;39.38;25.33;98308.66;6240583;27;97639;-59
2022/08/27 12:19:20;;;;;;;;;12.20;12.20;;;;;39.51;24.09;98313.69;6241354;27;97484;-59
2022/08/27 12:26:27;;;;;;;;;13.40;12.60;;;;;39.52;23.60;98306.81;6247598;27;98481;-63
2022/08/27 12:29:39;;;;;;;;;14.00;13.00;;;;;39.44;23.95;98291.25;6247534;27;100191;-59
2022/08/27 12:32:50;;;;;;;;;14.00;13.00;;;;;39.50;23.54;98304.44;6251526;27;96681;-56
2022/08/27 12:35:55;;;;;;;;;13.00;11.80;;;;;39.49;23.17;98297.19;6237888;27;96702;-58
2022/08/27 12:39:02;;;;;;;;;12.00;12.00;;;;;39.55;23.55;98300.31;6236304;27;96835;-60
2022/08/27 12:42:13;;;;;;;;;12.80;12.00;;;;;39.60;23.19;98297.00;6237351;27;97534;-57
2022/08/27 12:45:22;;;;;;;;;14.00;12.60;;;;;39.69;23.00;98289.56;6239104;27;97544;-58
2022/08/27 12:48:28;;;;;;;;;13.80;13.00;;;;;39.76;23.37;98294.34;6241569;27;97431;-57
2022/08/27 12:51:35;;;;;;;;;14.00;13.00;;;;;39.86;22.62;98289.72;6242304;27;98098;-58
2022/08/27 12:54:52;;;;;;;;;12.00;12.00;;;;;39.90;22.46;98282.78;6240224;27;97050;-59
2022/08/27 12:58:08;;;;;;;;;13.00;12.40;;;;;39.86;22.03;98284.06;6236929;27;97227;-59
2022/08/27 13:01:31;;;;;;;;;12.60;11.60;;;;;39.72;21.85;98273.81;6235490;27;97409;-63
2022/08/27 13:04:39;;;;;;;;;12.20;10.20;;;;;39.69;21.57;98288.78;6239044;27;98075;-59
2022/08/27 13:07:46;;;;;;;;;14.00;13.00;;;;;39.59;21.81;98282.09;6240023;27;97049;-59
2022/08/27 13:10:51;;;;;;;;;13.00;13.00;;;;;39.52;21.07;98278.63;6239009;27;96538;-59
2022/08/27 13:14:06;;;;;;;;;10.80;10.00;;;;;39.52;22.82;98275.78;6236649;27;97043;-62
2022/08/27 13:17:14;;;;;;;;;11.80;10.80;;;;;39.48;21.07;98269.41;6246291;27;98606;-61
2022/08/27 13:20:21;;;;;;;;;9.80;9.20;;;;;39.32;19.94;98262.44;6241023;27;98052;-63
2022/08/27 13:23:26;;;;;;;;;12.00;12.00;;;;;39.20;20.01;98257.34;6237494;27;97269;-57
2022/08/27 13:26:35;;;;;;;;;13.50;12.50;;;;;39.08;21.08;98257.97;6236162;27;96814;-57
2022/08/27 13:29:41;;;;;;;;;10.20;9.80;;;;;39.04;22.05;98262.88;6237466;27;97409;-57
2022/08/27 13:32:45;;;;;;;;;12.00;11.00;;;;;39.04;21.41;98262.06;6238344;27;97243;-58
2022/08/27 13:35:49;;;;;;;;;11.00;11.00;;;;;38.96;21.71;98256.53;6241407;27;97137;-62
2022/08/27 13:38:55;;;;;;;;;12.60;11.60;;;;;38.74;21.02;98245.97;6241622;27;98014;-60
2022/08/27 13:42:04;;;;;;;;;12.00;11.00;;;;;38.74;21.19;98260.88;6237992;27;96946;-57
2022/08/27 13:45:08;;;;;;;;;13.00;13.00;;;;;38.70;21.79;98265.75;6243918;27;98074;-61
2022/08/27 13:48:13;;;;;;;;;11.80;11.80;;;;;38.62;21.37;98260.63;6241760;27;96785;-61
2022/08/27 13:51:27;;;;;;;;;16.00;13.00;;;;;38.52;21.40;98257.53;6241386;27;97317;-58
2022/08/27 13:54:33;;;;;;;;;13.60;12.40;;;;;38.46;21.56;98247.97;6239518;27;97354;-57
2022/08/27 13:57:44;;;;;;;;;13.00;12.40;;;;;38.45;21.86;98248.41;6245050;27;97406;-58
2022/08/27 14:00:48;;;;;;;;;11.60;11.00;;;;;38.44;21.43;98244.78;6238511;27;96899;-59
2022/08/27 14:03:58;;;;;;;;;13.00;11.00;;;;;38.38;22.14;98243.63;6242190;27;97442;-61
2022/08/27 14:07:10;;;;;;;;;13.40;12.40;;;;;38.09;21.61;98214.25;6237714;27;97652;-58
2022/08/27 14:10:33;;;;;;;;;14.40;13.00;;;;;38.30;22.19;98244.94;6243195;27;97751;-56
2022/08/27 14:13:42;;;;;;;;;13.50;12.50;;;;;38.34;22.69;98242.06;6245969;27;98249;-59
2022/08/27 14:16:57;;;;;;;;;14.00;13.00;;;;;38.38;22.12;98243.63;6252427;27;97758;-56
2022/08/27 14:20:02;;;;;;;;;14.00;13.00;;;;;38.39;22.72;98248.03;6239608;27;97059;-57
2022/08/27 14:23:07;;;;;;;;;10.20;10.00;;;;;38.37;22.47;98242.03;6245199;27;97482;-58
2022/08/27 14:26:11;;;;;;;;;13.00;12.00;;;;;38.31;22.18;98234.47;6244237;27;97411;-61
2022/08/27 14:29:16;;;;;;;;;13.00;12.00;;;;;38.33;22.07;98248.91;6240580;27;97597;-59
2022/08/27 14:32:20;;;;;;;;;16.00;14.40;;;;;38.25;22.02;98245.41;6240993;27;96807;-59
2022/08/27 14:35:24;;;;;;;;;15.00;13.00;;;;;38.13;21.46;98245.94;6240644;27;97623;-57